Wetterdaten: Woche 14.03.11 - 20.03.11 (KW11)
Datum Zeit Temp. Innen Temp. Aussen UV X Diff Temp. Feuchte Inne Feuchte Auss Sonnenschein Luftdruck Regen ab 0,1 Wind Sonnenschein T Regendauer Windben
14.03.2011 00:00 15,4 C 10,2 C 0,0 UV-I 0,0 C 59 % 88 % 0 % 1009,1 hPa 0,1 l/m 0,1 km/h (0 Bft) 0,00 h 0,00 h 0,0 km/h (0 Bft)
14.03.2011 01:00 15,2 C 9,9 C 0,0 UV-I 0,0 C 59 % 89 % 0 % 1009,5 hPa 0,3 l/m 0,6 km/h (0 Bft) 0,00 h 0,00 h 1,5 km/h (1 Bft)
14.03.2011 02:00 15,2 C 9,7 C 0,0 UV-I 0,0 C 60 % 90 % 0 % 1010,1 hPa 0,2 l/m 0,8 km/h (0 Bft) 0,00 h 0,00 h 1,4 km/h (1 Bft)
14.03.2011 03:00 15,2 C 9,5 C 0,0 UV-I 0,0 C 60 % 91 % 0 % 1010,4 hPa 0,0 l/m 0,1 km/h (0 Bft) 0,00 h 0,00 h 0,1 km/h (0 Bft)
14.03.2011 04:00 15,1 C 9,5 C 0,0 UV-I 0,0 C 60 % 91 % 0 % 1011,0 hPa 0,8 l/m 0,4 km/h (0 Bft) 0,00 h 0,00 h 1,3 km/h (1 Bft)
14.03.2011 05:00 15,1 C 9,5 C 0,0 UV-I 0,0 C 60 % 91 % 0 % 1011,6 hPa 0,6 l/m 0,5 km/h (0 Bft) 0,00 h 0,00 h 0,7 km/h (0 Bft)
14.03.2011 06:00 15,2 C 9,3 C 0,0 UV-I 0,0 C 61 % 92 % 0 % 1012,0 hPa 0,1 l/m 0,2 km/h (0 Bft) 0,00 h 0,00 h 0,0 km/h (0 Bft)
14.03.2011 07:00 15,2 C 9,3 C 0,0 UV-I 0,0 C 61 % 92 % 0 % 1013,0 hPa 0,0 l/m 0,3 km/h (0 Bft) 0,00 h 0,00 h 0,7 km/h (0 Bft)
14.03.2011 08:00 15,2 C 9,6 C 0,0 UV-I 0,1 C 61 % 92 % 3 % 1013,8 hPa 0,0 l/m 0,3 km/h (0 Bft) 0,00 h 0,00 h 0,2 km/h (0 Bft)
14.03.2011 09:00 15,3 C 9,8 C 0,0 UV-I 0,3 C 61 % 92 % 7 % 1014,7 hPa 0,0 l/m 0,4 km/h (0 Bft) 0,00 h 0,00 h 0,9 km/h (0 Bft)
14.03.2011 10:00 15,4 C 10,2 C 0,0 UV-I 0,7 C 61 % 92 % 19 % 1015,4 hPa 0,0 l/m 2,0 km/h (1 Bft) 0,00 h 0,00 h 2,3 km/h (1 Bft)
14.03.2011 11:00 15,7 C 11,1 C 0,0 UV-I 1,5 C 61 % 92 % 44 % 1016,2 hPa 0,0 l/m 1,0 km/h (0 Bft) 0,00 h 0,00 h 1,0 km/h (0 Bft)
14.03.2011 12:00 16,0 C 12,4 C 0,0 UV-I 4,0 C 61 % 90 % 77 % 1016,7 hPa 0,0 l/m 0,9 km/h (0 Bft) 0,60 h 0,00 h 1,1 km/h (1 Bft)
14.03.2011 13:00 16,9 C 13,4 C 0,0 UV-I 3,9 C 58 % 83 % 97 % 1017,5 hPa 0,0 l/m 1,3 km/h (1 Bft) 0,93 h 0,00 h 1,8 km/h (1 Bft)
14.03.2011 14:00 17,1 C 13,5 C 0,0 UV-I 1,6 C 57 % 80 % 47 % 1017,5 hPa 0,0 l/m 3,4 km/h (1 Bft) 0,00 h 0,00 h 4,2 km/h (1 Bft)
14.03.2011 15:00 17,1 C 13,6 C 0,0 UV-I 1,7 C 57 % 78 % 48 % 1017,6 hPa 0,0 l/m 3,1 km/h (1 Bft) 0,00 h 0,00 h 3,0 km/h (1 Bft)
14.03.2011 16:00 17,0 C 13,5 C 0,0 UV-I 0,5 C 57 % 79 % 14 % 1017,7 hPa 0,0 l/m 1,7 km/h (1 Bft) 0,00 h 0,00 h 2,0 km/h (1 Bft)
14.03.2011 17:00 16,8 C 13,2 C 0,0 UV-I 0,1 C 58 % 79 % 1 % 1017,7 hPa 0,0 l/m 0,2 km/h (0 Bft) 0,00 h 0,00 h 0,2 km/h (0 Bft)
14.03.2011 18:00 16,6 C 12,6 C 0,0 UV-I 0,0 C 58 % 81 % 0 % 1018,0 hPa 0,0 l/m 0,1 km/h (0 Bft) 0,00 h 0,00 h 0,0 km/h (0 Bft)
14.03.2011 19:00 16,3 C 12,0 C 0,0 UV-I 0,0 C 59 % 83 % 0 % 1018,3 hPa 0,0 l/m 0,0 km/h (0 Bft) 0,00 h 0,00 h 0,0 km/h (0 Bft)
14.03.2011 20:00 16,1 C 11,7 C 0,0 UV-I 0,0 C 60 % 84 % 0 % 1018,7 hPa 0,0 l/m 0,0 km/h (0 Bft) 0,00 h 0,00 h 0,0 km/h (0 Bft)
14.03.2011 21:00 15,9 C 11,6 C 0,0 UV-I 0,0 C 61 % 85 % 0 % 1019,0 hPa 0,0 l/m 0,1 km/h (0 Bft) 0,00 h 0,00 h 0,2 km/h (0 Bft)
14.03.2011 22:00 16,0 C 11,5 C 0,0 UV-I 0,0 C 61 % 85 % 0 % 1018,9 hPa 0,0 l/m 0,0 km/h (0 Bft) 0,00 h 0,00 h 0,0 km/h (0 Bft)
14.03.2011 23:00 15,9 C 11,0 C 0,0 UV-I 0,0 C 61 % 85 % 0 % 1018,7 hPa 0,0 l/m 0,0 km/h (0 Bft) 0,00 h 0,00 h 0,0 km/h (0 Bft)
15.03.2011 00:00 15,8 C 10,2 C 0,0 UV-I 0,0 C 61 % 87 % 0 % 1018,4 hPa 0,0 l/m 0,2 km/h (0 Bft) 0,00 h 0,00 h 0,3 km/h (0 Bft)
15.03.2011 01:00 15,6 C 9,6 C 0,0 UV-I 0,0 C 61 % 88 % 0 % 1018,5 hPa 0,0 l/m 0,1 km/h (0 Bft) 0,00 h 0,00 h 0,2 km/h (0 Bft)
15.03.2011 02:00 15,4 C 8,9 C 0,0 UV-I 0,0 C 61 % 89 % 0 % 1018,5 hPa 0,0 l/m 0,1 km/h (0 Bft) 0,00 h 0,00 h 0,5 km/h (0 Bft)
15.03.2011 03:00 15,3 C 8,2 C 0,0 UV-I 0,0 C 61 % 89 % 0 % 1018,0 hPa 0,0 l/m 0,1 km/h (0 Bft) 0,00 h 0,00 h 0,0 km/h (0 Bft)
15.03.2011 04:00 15,2 C 7,3 C 0,0 UV-I 0,0 C 61 % 90 % 0 % 1017,8 hPa 0,0 l/m 0,0 km/h (0 Bft) 0,00 h 0,00 h 0,0 km/h (0 Bft)
15.03.2011 05:00 15,1 C 6,9 C 0,0 UV-I 0,0 C 61 % 91 % 0 % 1017,7 hPa 0,0 l/m 0,2 km/h (0 Bft) 0,00 h 0,00 h 0,1 km/h (0 Bft)
15.03.2011 06:00 14,9 C 6,0 C 0,0 UV-I 0,0 C 60 % 91 % 0 % 1017,6 hPa 0,0 l/m 0,0 km/h (0 Bft) 0,00 h 0,00 h 0,0 km/h (0 Bft)
15.03.2011 07:00 14,8 C 5,2 C 0,0 UV-I 0,1 C 59 % 92 % 3 % 1017,6 hPa 0,0 l/m 0,0 km/h (0 Bft) 0,00 h 0,00 h 0,0 km/h (0 Bft)
15.03.2011 08:00 14,8 C 7,3 C 0,0 UV-I 2,7 C 60 % 94 % 73 % 1017,7 hPa 0,0 l/m 1,1 km/h (1 Bft) 0,80 h 0,00 h 2,1 km/h (1 Bft)
15.03.2011 09:00 15,0 C 9,6 C 0,0 UV-I 3,7 C 61 % 92 % 87 % 1018,1 hPa 0,0 l/m 2,8 km/h (1 Bft) 0,63 h 0,00 h 3,5 km/h (1 Bft)
15.03.2011 10:00 15,4 C 11,3 C 0,0 UV-I 3,0 C 60 % 88 % 85 % 1018,0 hPa 0,0 l/m 3,8 km/h (1 Bft) 0,73 h 0,00 h 5,0 km/h (1 Bft)
15.03.2011 11:00 15,9 C 13,1 C 0,0 UV-I 4,8 C 60 % 81 % 97 % 1017,6 hPa 0,0 l/m 5,4 km/h (1 Bft) 1,00 h 0,00 h 6,6 km/h (2 Bft)
15.03.2011 12:00 16,7 C 15,3 C 2,3 UV-I 6,5 C 58 % 72 % 100 % 1017,4 hPa 0,0 l/m 5,9 km/h (2 Bft) 1,00 h 0,00 h 6,7 km/h (2 Bft)
15.03.2011 13:00 18,0 C 17,5 C 4,3 UV-I 5,7 C 55 % 65 % 100 % 1018,6 hPa 0,0 l/m 6,8 km/h (2 Bft) 1,00 h 0,00 h 7,1 km/h (2 Bft)
15.03.2011 14:00 19,3 C 18,6 C 2,3 UV-I 4,6 C 51 % 59 % 100 % 1017,4 hPa 0,0 l/m 6,1 km/h (2 Bft) 1,00 h 0,00 h 7,1 km/h (2 Bft)
15.03.2011 15:00 20,1 C 18,9 C 0,6 UV-I 3,7 C 49 % 57 % 98 % 1017,0 hPa 0,0 l/m 8,0 km/h (2 Bft) 1,00 h 0,00 h 8,0 km/h (2 Bft)
15.03.2011 16:00 20,1 C 18,2 C 0,0 UV-I 1,2 C 49 % 59 % 35 % 1016,0 hPa 0,0 l/m 4,6 km/h (1 Bft) 0,03 h 0,00 h 5,9 km/h (2 Bft)
15.03.2011 17:00 19,5 C 18,0 C 0,0 UV-I 1,4 C 50 % 53 % 40 % 1015,2 hPa 0,0 l/m 4,3 km/h (1 Bft) 0,50 h 0,00 h 4,5 km/h (1 Bft)
15.03.2011 18:00 19,0 C 16,2 C 0,0 UV-I 0,0 C 51 % 55 % 0 % 1015,0 hPa 0,0 l/m 2,7 km/h (1 Bft) 0,00 h 0,00 h 2,9 km/h (1 Bft)
15.03.2011 19:00 18,3 C 14,4 C 0,0 UV-I 0,0 C 51 % 65 % 0 % 1015,0 hPa 0,0 l/m 2,8 km/h (1 Bft) 0,00 h 0,00 h 3,7 km/h (1 Bft)
15.03.2011 20:00 17,6 C 13,2 C 0,0 UV-I 0,0 C 54 % 71 % 0 % 1015,0 hPa 0,0 l/m 2,5 km/h (1 Bft) 0,00 h 0,00 h 3,7 km/h (1 Bft)
15.03.2011 21:00 17,2 C 12,2 C 0,0 UV-I 0,0 C 55 % 75 % 0 % 1015,3 hPa 0,0 l/m 1,3 km/h (1 Bft) 0,00 h 0,00 h 1,5 km/h (1 Bft)
15.03.2011 22:00 17,0 C 11,1 C 0,0 UV-I 0,0 C 56 % 78 % 0 % 1015,3 hPa 0,0 l/m 0,4 km/h (0 Bft) 0,00 h 0,00 h 0,9 km/h (0 Bft)
15.03.2011 23:00 16,7 C 10,3 C 0,0 UV-I 0,0 C 56 % 81 % 0 % 1015,2 hPa 0,0 l/m 0,5 km/h (0 Bft) 0,00 h 0,00 h 0,6 km/h (0 Bft)
16.03.2011 00:00 16,5 C 9,7 C 0,0 UV-I 0,0 C 57 % 82 % 0 % 1014,8 hPa 0,0 l/m 1,9 km/h (1 Bft) 0,00 h 0,00 h 3,0 km/h (1 Bft)
16.03.2011 01:00 16,3 C 9,3 C 0,0 UV-I 0,0 C 57 % 83 % 0 % 1014,4 hPa 0,0 l/m 3,4 km/h (1 Bft) 0,00 h 0,00 h 5,0 km/h (1 Bft)
16.03.2011 02:00 16,1 C 8,8 C 0,0 UV-I 0,0 C 57 % 83 % 0 % 1014,1 hPa 0,0 l/m 3,0 km/h (1 Bft) 0,00 h 0,00 h 3,1 km/h (1 Bft)
16.03.2011 03:00 15,9 C 8,0 C 0,0 UV-I 0,0 C 57 % 84 % 0 % 1013,6 hPa 0,0 l/m 0,2 km/h (0 Bft) 0,00 h 0,00 h 0,7 km/h (0 Bft)
16.03.2011 04:00 15,7 C 7,6 C 0,0 UV-I 0,0 C 58 % 85 % 0 % 1013,0 hPa 0,0 l/m 0,5 km/h (0 Bft) 0,00 h 0,00 h 0,9 km/h (0 Bft)
16.03.2011 05:00 15,6 C 7,6 C 0,0 UV-I 0,0 C 58 % 86 % 0 % 1013,0 hPa 0,0 l/m 1,0 km/h (0 Bft) 0,00 h 0,00 h 1,2 km/h (1 Bft)
16.03.2011 06:00 15,4 C 7,3 C 0,0 UV-I 0,0 C 58 % 86 % 0 % 1013,1 hPa 0,0 l/m 0,3 km/h (0 Bft) 0,00 h 0,00 h 0,4 km/h (0 Bft)
16.03.2011 07:00 15,4 C 7,1 C 0,0 UV-I 0,0 C 58 % 87 % 1 % 1012,7 hPa 0,0 l/m 0,6 km/h (0 Bft) 0,00 h 0,00 h 1,3 km/h (1 Bft)
16.03.2011 08:00 15,4 C 8,4 C 0,0 UV-I 2,8 C 58 % 85 % 75 % 1012,3 hPa 0,0 l/m 3,9 km/h (1 Bft) 0,77 h 0,00 h 4,9 km/h (1 Bft)
16.03.2011 09:00 15,5 C 10,0 C 0,0 UV-I 4,5 C 57 % 80 % 100 % 1012,4 hPa 0,0 l/m 7,9 km/h (2 Bft) 0,97 h 0,00 h 9,4 km/h (2 Bft)
16.03.2011 10:00 15,7 C 11,2 C 0,0 UV-I 5,0 C 57 % 76 % 100 % 1012,2 hPa 0,0 l/m 8,7 km/h (2 Bft) 0,75 h 0,00 h 9,5 km/h (2 Bft)
16.03.2011 11:00 16,5 C 11,6 C 0,0 UV-I 3,8 C 55 % 73 % 97 % 1012,1 hPa 0,0 l/m 9,9 km/h (2 Bft) 0,37 h 0,00 h 10,8 km/h (2 Bft)
16.03.2011 12:00 17,3 C 12,4 C 0,3 UV-I 5,3 C 53 % 71 % 99 % 1011,8 hPa 0,0 l/m 10,8 km/h (2 Bft) 0,87 h 0,00 h 11,7 km/h (2 Bft)
16.03.2011 13:00 18,8 C 13,5 C 1,1 UV-I 5,2 C 49 % 67 % 100 % 1012,9 hPa 0,0 l/m 11,8 km/h (2 Bft) 1,00 h 0,00 h 12,4 km/h (3 Bft)
16.03.2011 14:00 19,7 C 13,7 C 0,8 UV-I 4,5 C 46 % 66 % 100 % 1011,8 hPa 0,0 l/m 11,0 km/h (2 Bft) 1,00 h 0,00 h 11,3 km/h (2 Bft)
16.03.2011 15:00 20,3 C 12,9 C 0,0 UV-I 3,1 C 45 % 67 % 88 % 1011,4 hPa 0,0 l/m 11,9 km/h (2 Bft) 0,73 h 0,00 h 11,9 km/h (2 Bft)
16.03.2011 16:00 20,1 C 11,3 C 0,0 UV-I 1,4 C 45 % 70 % 39 % 1010,5 hPa 0,0 l/m 10,9 km/h (2 Bft) 0,00 h 0,00 h 11,6 km/h (2 Bft)
16.03.2011 17:00 19,2 C 9,5 C 0,0 UV-I 0,0 C 45 % 75 % 1 % 1009,6 hPa 0,0 l/m 10,4 km/h (2 Bft) 0,00 h 0,00 h 11,7 km/h (2 Bft)
16.03.2011 18:00 18,3 C 8,0 C 0,0 UV-I 0,0 C 46 % 78 % 0 % 1009,3 hPa 0,0 l/m 10,3 km/h (2 Bft) 0,00 h 0,00 h 10,1 km/h (2 Bft)
16.03.2011 19:00 17,3 C 7,0 C 0,0 UV-I 0,0 C 48 % 80 % 0 % 1009,1 hPa 0,0 l/m 9,5 km/h (2 Bft) 0,00 h 0,00 h 9,2 km/h (2 Bft)
16.03.2011 20:00 16,6 C 6,6 C 0,0 UV-I 0,0 C 49 % 82 % 0 % 1008,9 hPa 0,0 l/m 7,8 km/h (2 Bft) 0,00 h 0,00 h 7,8 km/h (2 Bft)
16.03.2011 21:00 16,1 C 6,4 C 0,0 UV-I 0,0 C 50 % 82 % 0 % 1008,7 hPa 0,0 l/m 7,9 km/h (2 Bft) 0,00 h 0,00 h 8,6 km/h (2 Bft)
16.03.2011 22:00 15,9 C 6,4 C 0,0 UV-I 0,0 C 50 % 82 % 0 % 1008,5 hPa 0,0 l/m 7,1 km/h (2 Bft) 0,00 h 0,00 h 8,1 km/h (2 Bft)
16.03.2011 23:00 15,7 C 6,2 C 0,0 UV-I 0,0 C 51 % 82 % 0 % 1008,6 hPa 0,0 l/m 6,4 km/h (2 Bft) 0,00 h 0,00 h 7,0 km/h (2 Bft)
17.03.2011 00:00 15,6 C 6,0 C 0,0 UV-I 0,0 C 51 % 83 % 0 % 1008,2 hPa 0,0 l/m 6,7 km/h (2 Bft) 0,00 h 0,00 h 9,8 km/h (2 Bft)
17.03.2011 01:00 15,4 C 5,8 C 0,0 UV-I 0,0 C 51 % 85 % 0 % 1007,7 hPa 0,0 l/m 4,9 km/h (1 Bft) 0,00 h 0,00 h 6,6 km/h (2 Bft)
17.03.2011 02:00 15,3 C 5,6 C 0,0 UV-I 0,0 C 52 % 86 % 0 % 1007,5 hPa 0,0 l/m 4,8 km/h (1 Bft) 0,00 h 0,00 h 6,1 km/h (2 Bft)
17.03.2011 03:00 15,2 C 5,5 C 0,0 UV-I 0,0 C 52 % 88 % 0 % 1007,3 hPa 0,0 l/m 6,6 km/h (2 Bft) 0,00 h 0,00 h 8,8 km/h (2 Bft)
17.03.2011 04:00 15,2 C 5,5 C 0,0 UV-I 0,0 C 53 % 89 % 0 % 1007,5 hPa 0,0 l/m 8,1 km/h (2 Bft) 0,00 h 0,00 h 11,4 km/h (2 Bft)
17.03.2011 05:00 15,0 C 5,5 C 0,0 UV-I 0,0 C 53 % 89 % 0 % 1007,4 hPa 0,0 l/m 7,4 km/h (2 Bft) 0,00 h 0,00 h 7,6 km/h (2 Bft)
17.03.2011 06:00 15,0 C 5,5 C 0,0 UV-I 0,0 C 54 % 90 % 0 % 1007,8 hPa 0,0 l/m 7,2 km/h (2 Bft) 0,00 h 0,00 h 7,1 km/h (2 Bft)
17.03.2011 07:00 14,9 C 5,6 C 0,0 UV-I 0,0 C 54 % 91 % 0 % 1008,4 hPa 0,0 l/m 8,2 km/h (2 Bft) 0,00 h 0,00 h 8,1 km/h (2 Bft)
17.03.2011 08:00 14,8 C 5,6 C 0,0 UV-I 0,0 C 54 % 91 % 0 % 1008,7 hPa 0,0 l/m 10,8 km/h (2 Bft) 0,00 h 0,00 h 11,4 km/h (2 Bft)
17.03.2011 09:00 14,8 C 5,9 C 0,0 UV-I 0,0 C 55 % 92 % 0 % 1009,0 hPa 0,0 l/m 9,0 km/h (2 Bft) 0,00 h 0,00 h 8,4 km/h (2 Bft)
17.03.2011 10:00 14,8 C 6,2 C 0,0 UV-I 0,1 C 55 % 91 % 2 % 1009,4 hPa 0,0 l/m 8,5 km/h (2 Bft) 0,00 h 0,00 h 8,2 km/h (2 Bft)
17.03.2011 11:00 14,9 C 6,6 C 0,0 UV-I 0,2 C 55 % 91 % 7 % 1009,5 hPa 0,0 l/m 7,8 km/h (2 Bft) 0,00 h 0,00 h 8,5 km/h (2 Bft)
17.03.2011 12:00 15,0 C 7,0 C 0,0 UV-I 0,3 C 55 % 90 % 7 % 1010,0 hPa 0,0 l/m 4,5 km/h (1 Bft) 0,00 h 0,00 h 5,7 km/h (1 Bft)
17.03.2011 13:00 15,0 C 7,1 C 0,0 UV-I 0,2 C 55 % 89 % 6 % 1010,6 hPa 0,0 l/m 5,7 km/h (1 Bft) 0,00 h 0,00 h 7,8 km/h (2 Bft)
17.03.2011 14:00 15,0 C 7,1 C 0,0 UV-I 0,1 C 55 % 88 % 4 % 1010,8 hPa 0,0 l/m 6,3 km/h (2 Bft) 0,00 h 0,00 h 6,8 km/h (2 Bft)
17.03.2011 15:00 15,0 C 7,2 C 0,0 UV-I 0,1 C 55 % 88 % 2 % 1011,4 hPa 0,0 l/m 5,3 km/h (1 Bft) 0,00 h 0,00 h 6,5 km/h (2 Bft)
17.03.2011 16:00 14,9 C 7,5 C 0,0 UV-I 0,0 C 55 % 87 % 0 % 1011,5 hPa 0,0 l/m 3,7 km/h (1 Bft) 0,00 h 0,00 h 4,5 km/h (1 Bft)
17.03.2011 17:00 14,8 C 7,6 C 0,0 UV-I 0,0 C 55 % 86 % 0 % 1012,2 hPa 0,0 l/m 3,9 km/h (1 Bft) 0,00 h 0,00 h 4,7 km/h (1 Bft)
17.03.2011 18:00 14,8 C 7,4 C 0,0 UV-I 0,0 C 55 % 86 % 0 % 1013,2 hPa 0,0 l/m 7,2 km/h (2 Bft) 0,00 h 0,00 h 8,6 km/h (2 Bft)
17.03.2011 19:00 14,7 C 7,0 C 0,0 UV-I 0,0 C 55 % 88 % 0 % 1014,1 hPa 0,0 l/m 5,6 km/h (1 Bft) 0,00 h 0,00 h 6,5 km/h (2 Bft)
17.03.2011 20:00 14,6 C 6,8 C 0,0 UV-I 0,0 C 55 % 88 % 0 % 1015,1 hPa 0,0 l/m 5,5 km/h (1 Bft) 0,00 h 0,00 h 6,8 km/h (2 Bft)
17.03.2011 21:00 14,5 C 6,5 C 0,0 UV-I 0,0 C 55 % 88 % 0 % 1015,7 hPa 0,0 l/m 5,9 km/h (2 Bft) 0,00 h 0,00 h 6,9 km/h (2 Bft)
17.03.2011 22:00 14,4 C 6,3 C 0,0 UV-I 0,0 C 55 % 90 % 0 % 1016,3 hPa 0,0 l/m 7,0 km/h (2 Bft) 0,00 h 0,00 h 7,5 km/h (2 Bft)
17.03.2011 23:00 14,3 C 5,9 C 0,0 UV-I 0,0 C 56 % 91 % 0 % 1016,8 hPa 0,0 l/m 5,6 km/h (1 Bft) 0,00 h 0,00 h 7,2 km/h (2 Bft)
18.03.2011 00:00 14,4 C 5,6 C 0,0 UV-I 0,0 C 56 % 92 % 0 % 1017,2 hPa 0,0 l/m 6,6 km/h (2 Bft) 0,00 h 0,00 h 7,9 km/h (2 Bft)
18.03.2011 01:00 14,2 C 5,3 C 0,0 UV-I 0,0 C 56 % 92 % 0 % 1017,8 hPa 0,0 l/m 7,6 km/h (2 Bft) 0,00 h 0,00 h 8,3 km/h (2 Bft)
18.03.2011 02:00 14,2 C 5,1 C 0,0 UV-I 0,0 C 56 % 92 % 0 % 1018,4 hPa 0,0 l/m 5,1 km/h (1 Bft) 0,00 h 0,00 h 5,7 km/h (1 Bft)
18.03.2011 03:00 14,1 C 5,1 C 0,0 UV-I 0,0 C 56 % 93 % 0 % 1018,8 hPa 0,1 l/m 4,2 km/h (1 Bft) 0,00 h 0,00 h 5,9 km/h (2 Bft)
18.03.2011 04:00 14,0 C 4,9 C 0,0 UV-I 0,0 C 56 % 93 % 0 % 1019,4 hPa 0,0 l/m 5,8 km/h (2 Bft) 0,00 h 0,00 h 7,4 km/h (2 Bft)
18.03.2011 05:00 14,0 C 4,9 C 0,0 UV-I 0,0 C 55 % 92 % 0 % 1020,2 hPa 0,0 l/m 5,1 km/h (1 Bft) 0,00 h 0,00 h 6,5 km/h (2 Bft)
18.03.2011 06:00 14,0 C 4,8 C 0,0 UV-I 0,0 C 55 % 92 % 0 % 1020,9 hPa 0,0 l/m 1,4 km/h (1 Bft) 0,00 h 0,00 h 1,8 km/h (1 Bft)
18.03.2011 07:00 14,0 C 4,9 C 0,0 UV-I 0,0 C 55 % 92 % 0 % 1021,5 hPa 0,0 l/m 1,3 km/h (1 Bft) 0,00 h 0,00 h 2,1 km/h (1 Bft)
18.03.2011 08:00 14,0 C 5,3 C 0,0 UV-I 0,0 C 55 % 91 % 1 % 1021,9 hPa 0,0 l/m 0,6 km/h (0 Bft) 0,00 h 0,00 h 0,9 km/h (0 Bft)
18.03.2011 09:00 13,9 C 5,7 C 0,0 UV-I 0,1 C 55 % 91 % 3 % 1022,5 hPa 0,1 l/m 2,4 km/h (1 Bft) 0,00 h 0,00 h 3,1 km/h (1 Bft)
18.03.2011 10:00 14,1 C 5,9 C 0,0 UV-I 0,0 C 56 % 92 % 1 % 1023,1 hPa 0,0 l/m 3,2 km/h (1 Bft) 0,00 h 0,00 h 3,8 km/h (1 Bft)
18.03.2011 11:00 14,1 C 6,2 C 0,0 UV-I 0,4 C 56 % 92 % 12 % 1023,1 hPa 0,0 l/m 3,6 km/h (1 Bft) 0,00 h 0,00 h 4,0 km/h (1 Bft)
18.03.2011 12:00 14,2 C 6,6 C 0,0 UV-I 0,3 C 56 % 92 % 8 % 1023,2 hPa 0,0 l/m 3,3 km/h (1 Bft) 0,00 h 0,00 h 4,0 km/h (1 Bft)
18.03.2011 13:00 14,2 C 6,6 C 0,0 UV-I 0,0 C 56 % 92 % 0 % 1023,3 hPa 0,0 l/m 0,6 km/h (0 Bft) 0,00 h 0,00 h 0,8 km/h (0 Bft)
18.03.2011 14:00 14,2 C 6,7 C 0,0 UV-I 0,0 C 57 % 92 % 1 % 1023,2 hPa 0,1 l/m 1,2 km/h (1 Bft) 0,00 h 0,00 h 1,7 km/h (1 Bft)
18.03.2011 15:00 14,3 C 7,1 C 0,0 UV-I 0,3 C 57 % 91 % 7 % 1023,2 hPa 0,0 l/m 1,0 km/h (0 Bft) 0,00 h 0,00 h 1,6 km/h (1 Bft)
18.03.2011 16:00 14,3 C 7,3 C 0,0 UV-I 0,0 C 57 % 91 % 0 % 1023,0 hPa 0,2 l/m 0,1 km/h (0 Bft) 0,00 h 0,00 h 0,1 km/h (0 Bft)
18.03.2011 17:00 14,3 C 7,1 C 0,0 UV-I 0,0 C 57 % 91 % 0 % 1023,2 hPa 0,4 l/m 0,9 km/h (0 Bft) 0,00 h 0,00 h 1,4 km/h (1 Bft)
18.03.2011 18:00 14,2 C 6,8 C 0,0 UV-I 0,0 C 58 % 92 % 0 % 1023,4 hPa 1,0 l/m 1,3 km/h (1 Bft) 0,00 h 0,00 h 2,0 km/h (1 Bft)
18.03.2011 19:00 14,2 C 6,7 C 0,0 UV-I 0,0 C 59 % 92 % 0 % 1024,0 hPa 1,0 l/m 3,9 km/h (1 Bft) 0,00 h 0,00 h 4,7 km/h (1 Bft)
18.03.2011 20:00 14,2 C 6,7 C 0,0 UV-I 0,0 C 59 % 93 % 0 % 1024,4 hPa 0,8 l/m 3,7 km/h (1 Bft) 0,00 h 0,00 h 3,9 km/h (1 Bft)
18.03.2011 21:00 14,1 C 6,6 C 0,0 UV-I 0,0 C 60 % 93 % 0 % 1024,6 hPa 1,0 l/m 0,7 km/h (0 Bft) 0,00 h 0,00 h 1,0 km/h (0 Bft)
18.03.2011 22:00 14,1 C 6,5 C 0,0 UV-I 0,0 C 60 % 93 % 0 % 1024,8 hPa 0,6 l/m 0,6 km/h (0 Bft) 0,00 h 0,00 h 1,0 km/h (0 Bft)
18.03.2011 23:00 14,2 C 6,4 C 0,0 UV-I 0,0 C 60 % 93 % 0 % 1025,1 hPa 1,0 l/m 0,0 km/h (0 Bft) 0,00 h 0,00 h 0,0 km/h (0 Bft)
19.03.2011 00:00 14,2 C 6,5 C 0,0 UV-I 0,0 C 60 % 94 % 0 % 1025,3 hPa 1,2 l/m 0,3 km/h (0 Bft) 0,00 h 0,00 h 0,8 km/h (0 Bft)
19.03.2011 01:00 14,2 C 6,0 C 0,0 UV-I 0,0 C 60 % 93 % 0 % 1026,2 hPa 0,9 l/m 5,7 km/h (1 Bft) 0,00 h 0,00 h 7,1 km/h (2 Bft)
19.03.2011 02:00 14,2 C 5,6 C 0,0 UV-I 0,0 C 59 % 93 % 0 % 1026,8 hPa 0,2 l/m 6,5 km/h (2 Bft) 0,00 h 0,00 h 6,8 km/h (2 Bft)
19.03.2011 03:00 14,0 C 5,5 C 0,0 UV-I 0,0 C 59 % 93 % 0 % 1027,1 hPa 0,1 l/m 3,5 km/h (1 Bft) 0,00 h 0,00 h 4,4 km/h (1 Bft)
19.03.2011 04:00 13,9 C 5,4 C 0,0 UV-I 0,0 C 58 % 92 % 0 % 1027,8 hPa 0,0 l/m 3,2 km/h (1 Bft) 0,00 h 0,00 h 3,6 km/h (1 Bft)
19.03.2011 05:00 13,9 C 5,5 C 0,0 UV-I 0,0 C 58 % 92 % 0 % 1028,6 hPa 0,0 l/m 1,9 km/h (1 Bft) 0,00 h 0,00 h 2,6 km/h (1 Bft)
19.03.2011 06:00 13,9 C 5,3 C 0,0 UV-I 0,0 C 58 % 92 % 0 % 1029,6 hPa 0,0 l/m 3,9 km/h (1 Bft) 0,00 h 0,00 h 4,6 km/h (1 Bft)
19.03.2011 07:00 13,9 C 5,0 C 0,0 UV-I 0,0 C 58 % 92 % 0 % 1030,5 hPa 0,0 l/m 8,1 km/h (2 Bft) 0,00 h 0,00 h 8,3 km/h (2 Bft)
19.03.2011 08:00 14,0 C 5,1 C 0,0 UV-I 0,6 C 57 % 91 % 18 % 1031,8 hPa 0,0 l/m 4,7 km/h (1 Bft) 0,10 h 0,00 h 4,9 km/h (1 Bft)
19.03.2011 09:00 14,1 C 6,3 C 0,0 UV-I 5,9 C 56 % 86 % 100 % 1032,9 hPa 0,0 l/m 5,0 km/h (1 Bft) 1,00 h 0,00 h 5,4 km/h (1 Bft)
19.03.2011 10:00 14,2 C 7,9 C 0,3 UV-I 6,9 C 56 % 72 % 100 % 1033,4 hPa 0,0 l/m 7,9 km/h (2 Bft) 1,00 h 0,00 h 9,0 km/h (2 Bft)
19.03.2011 11:00 14,4 C 9,2 C 0,7 UV-I 6,8 C 54 % 61 % 100 % 1033,9 hPa 0,0 l/m 7,6 km/h (2 Bft) 1,00 h 0,00 h 8,1 km/h (2 Bft)
19.03.2011 12:00 15,2 C 10,2 C 5,0 UV-I 6,9 C 52 % 55 % 100 % 1034,6 hPa 0,0 l/m 7,7 km/h (2 Bft) 1,00 h 0,00 h 7,7 km/h (2 Bft)
19.03.2011 13:00 16,8 C 11,0 C 7,0 UV-I 6,8 C 47 % 49 % 100 % 1037,2 hPa 0,0 l/m 8,7 km/h (2 Bft) 1,00 h 0,00 h 8,9 km/h (2 Bft)
19.03.2011 14:00 18,7 C 11,7 C 6,4 UV-I 6,4 C 41 % 43 % 100 % 1036,9 hPa 0,0 l/m 8,1 km/h (2 Bft) 1,00 h 0,00 h 8,9 km/h (2 Bft)
19.03.2011 15:00 20,2 C 11,9 C 2,7 UV-I 5,6 C 38 % 42 % 100 % 1037,3 hPa 0,0 l/m 8,6 km/h (2 Bft) 1,00 h 0,00 h 8,0 km/h (2 Bft)
19.03.2011 16:00 20,6 C 11,8 C 0,7 UV-I 4,3 C 37 % 42 % 100 % 1036,8 hPa 0,0 l/m 11,2 km/h (2 Bft) 1,00 h 0,00 h 12,8 km/h (3 Bft)
19.03.2011 17:00 19,8 C 10,9 C 0,0 UV-I 2,5 C 38 % 47 % 70 % 1035,8 hPa 0,0 l/m 12,1 km/h (2 Bft) 1,00 h 0,00 h 11,5 km/h (2 Bft)
19.03.2011 18:00 18,7 C 9,2 C 0,0 UV-I 0,3 C 40 % 55 % 7 % 1035,6 hPa 0,0 l/m 10,0 km/h (2 Bft) 0,20 h 0,00 h 9,4 km/h (2 Bft)
19.03.2011 19:00 17,3 C 7,5 C 0,0 UV-I 0,0 C 42 % 62 % 0 % 1035,2 hPa 0,0 l/m 4,0 km/h (1 Bft) 0,00 h 0,00 h 3,8 km/h (1 Bft)
19.03.2011 20:00 16,2 C 6,1 C 0,0 UV-I 0,0 C 44 % 66 % 0 % 1035,0 hPa 0,0 l/m 2,2 km/h (1 Bft) 0,00 h 0,00 h 2,3 km/h (1 Bft)
19.03.2011 21:00 15,6 C 4,7 C 0,0 UV-I 0,0 C 45 % 71 % 0 % 1035,4 hPa 0,0 l/m 0,7 km/h (0 Bft) 0,00 h 0,00 h 1,0 km/h (0 Bft)
19.03.2011 22:00 15,1 C 3,1 C 0,0 UV-I 0,0 C 46 % 75 % 0 % 1035,1 hPa 0,0 l/m 0,0 km/h (0 Bft) 0,00 h 0,00 h 0,0 km/h (0 Bft)
19.03.2011 23:00 14,7 C 1,7 C 0,0 UV-I 0,0 C 46 % 79 % 0 % 1035,1 hPa 0,0 l/m 0,0 km/h (0 Bft) 0,00 h 0,00 h 0,0 km/h (0 Bft)
20.03.2011 00:00 14,4 C 0,9 C 0,0 UV-I 0,0 C 47 % 83 % 0 % 1035,1 hPa 0,0 l/m 0,0 km/h (0 Bft) 0,00 h 0,00 h 0,0 km/h (0 Bft)
20.03.2011 01:00 14,1 C 0,2 C 0,0 UV-I 0,0 C 47 % 85 % 0 % 1034,8 hPa 0,0 l/m 0,0 km/h (0 Bft) 0,00 h 0,00 h 0,0 km/h (0 Bft)
20.03.2011 02:00 13,8 C -0,3 C 0,0 UV-I 0,0 C 47 % 86 % 0 % 1034,7 hPa 0,0 l/m 0,0 km/h (0 Bft) 0,00 h 0,00 h 0,0 km/h (0 Bft)
20.03.2011 03:00 13,6 C -0,9 C 0,0 UV-I 0,0 C 47 % 87 % 0 % 1034,5 hPa 0,0 l/m 0,0 km/h (0 Bft) 0,00 h 0,00 h 0,0 km/h (0 Bft)
20.03.2011 04:00 13,4 C -1,0 C 0,0 UV-I 0,0 C 47 % 88 % 0 % 1034,3 hPa 0,0 l/m 0,0 km/h (0 Bft) 0,00 h 0,00 h 0,0 km/h (0 Bft)
20.03.2011 05:00 13,2 C -1,5 C 0,0 UV-I 0,0 C 47 % 89 % 0 % 1034,3 hPa 0,0 l/m 0,0 km/h (0 Bft) 0,00 h 0,00 h 0,0 km/h (0 Bft)
20.03.2011 06:00 13,1 C -1,3 C 0,0 UV-I 0,0 C 47 % 90 % 0 % 1034,1 hPa 0,0 l/m 0,1 km/h (0 Bft) 0,00 h 0,00 h 0,4 km/h (0 Bft)
20.03.2011 07:00 13,0 C -0,5 C 0,0 UV-I 0,3 C 47 % 90 % 7 % 1034,4 hPa 0,0 l/m 1,3 km/h (1 Bft) 0,03 h 0,00 h 2,4 km/h (1 Bft)
20.03.2011 08:00 13,1 C 1,8 C 0,0 UV-I 3,0 C 47 % 89 % 82 % 1034,7 hPa 0,1 l/m 4,1 km/h (1 Bft) 0,77 h 0,00 h 5,4 km/h (1 Bft)
20.03.2011 09:00 13,2 C 4,6 C 0,0 UV-I 6,9 C 47 % 85 % 100 % 1034,8 hPa 0,0 l/m 3,5 km/h (1 Bft) 1,00 h 0,00 h 3,9 km/h (1 Bft)
20.03.2011 10:00 13,4 C 7,3 C 0,1 UV-I 8,4 C 47 % 73 % 100 % 1035,1 hPa 0,0 l/m 2,8 km/h (1 Bft) 1,00 h 0,00 h 3,8 km/h (1 Bft)
20.03.2011 11:00 13,9 C 9,6 C 0,4 UV-I 9,2 C 47 % 57 % 100 % 1035,1 hPa 0,0 l/m 2,4 km/h (1 Bft) 1,00 h 0,00 h 3,5 km/h (1 Bft)
20.03.2011 12:00 14,9 C 11,2 C 4,3 UV-I 8,1 C 46 % 46 % 100 % 1035,3 hPa 0,0 l/m 3,9 km/h (1 Bft) 1,00 h 0,00 h 4,8 km/h (1 Bft)
20.03.2011 13:00 16,6 C 12,4 C 6,0 UV-I 7,4 C 42 % 35 % 100 % 1037,6 hPa 0,0 l/m 4,2 km/h (1 Bft) 1,00 h 0,00 h 4,9 km/h (1 Bft)
20.03.2011 14:00 18,3 C 12,8 C 4,6 UV-I 6,3 C 38 % 29 % 100 % 1036,9 hPa 0,0 l/m 3,9 km/h (1 Bft) 1,00 h 0,00 h 4,4 km/h (1 Bft)
20.03.2011 15:00 19,8 C 13,1 C 2,2 UV-I 6,1 C 35 % 28 % 100 % 1037,1 hPa 0,0 l/m 5,9 km/h (2 Bft) 1,00 h 0,00 h 5,9 km/h (2 Bft)
20.03.2011 16:00 20,3 C 13,5 C 0,3 UV-I 5,5 C 33 % 25 % 100 % 1036,5 hPa 0,0 l/m 3,4 km/h (1 Bft) 1,00 h 0,00 h 4,4 km/h (1 Bft)
20.03.2011 17:00 19,4 C 13,1 C 0,0 UV-I 3,6 C 35 % 26 % 90 % 1035,2 hPa 0,0 l/m 2,7 km/h (1 Bft) 1,00 h 0,00 h 2,9 km/h (1 Bft)
20.03.2011 18:00 18,5 C 11,7 C 0,0 UV-I 0,3 C 36 % 33 % 9 % 1034,6 hPa 0,0 l/m 0,4 km/h (0 Bft) 0,20 h 0,00 h 0,3 km/h (0 Bft)
20.03.2011 19:00 17,3 C 7,9 C 0,0 UV-I 0,0 C 38 % 46 % 0 % 1034,1 hPa 0,0 l/m 0,0 km/h (0 Bft) 0,00 h 0,00 h 0,0 km/h (0 Bft)
20.03.2011 20:00 16,3 C 5,1 C 0,0 UV-I 0,0 C 40 % 57 % 0 % 1034,2 hPa 0,0 l/m 0,0 km/h (0 Bft) 0,00 h 0,00 h 0,0 km/h (0 Bft)
20.03.2011 21:00 15,6 C 3,4 C 0,0 UV-I 0,0 C 41 % 64 % 0 % 1034,3 hPa 0,0 l/m 0,0 km/h (0 Bft) 0,00 h 0,00 h 0,0 km/h (0 Bft)
20.03.2011 22:00 15,1 C 2,6 C 0,0 UV-I 0,0 C 42 % 69 % 0 % 1034,2 hPa 0,0 l/m 0,0 km/h (0 Bft) 0,00 h 0,00 h 0,0 km/h (0 Bft)
20.03.2011 23:00 14,7 C 1,7 C 0,0 UV-I 0,0 C 43 % 74 % 0 % 1034,4 hPa 0,0 l/m 0,0 km/h (0 Bft) 0,00 h 0,00 h 0,0 km/h (0 Bft)
Min-Datum _ 20.03.11 20.03.11 14.03.11 14.03.11 20.03.11 20.03.11 14.03.11 17.03.11 - 14.03.11 - - 14.03.11
_ Min-Zeit 06:46 05:12 00:00 00:00 16:00 17:00 00:00 03:26 - 00:08 - - 00:00
Minimum _ 12,9 C -1,6 C 0,0 UV-I 0,0 C 33 % 23 % 0 % 1007,2 hPa - 0,0 km/h (0 Bft) - - 0,0 km/h (0 Bft)
Max-Datum _ 19.03.11 15.03.11 19.03.11 20.03.11 14.03.11 15.03.11 14.03.11 19.03.11 19.03.11 19.03.11 14.03.11 14.03.11 16.03.11
_ Max-Zeit 15:54 15:34 13:32 11:04 05:20 08:14 12:28 13:26 00:08 16:32 12:24 00:00 12:12
Maximum _ 20,7 C 19,1 C 7,3 UV-I 9,9 C 61 % 94 % 100 % 1038,1 hPa 1,2 l/m 14,5 km/h
SW (3 Bft)
0,03 h 0,00 h 29,9 km/h
S (5 Bft)
Durchschnitt _ 15,7 C 8,2 C 0,3 UV-I 1,2 C 53 % 80 % 23 % 1020,6 hPa #10,6 l/m 3,7 km/h (1 Bft) #34:59 h #0 min. 4,2 km/h (1 Bft)
© 2012 W. Hausmann